sensor_id;sensor_type;location;lat;lon;timestamp;temperature;humidity
75430;DHT22;64127;51.488;5.462;2022-12-08T00:00:28;6.50;99.90
75430;DHT22;64127;51.488;5.462;2022-12-08T00:03:03;6.50;99.90
75430;DHT22;64127;51.488;5.462;2022-12-08T00:05:36;6.50;99.90
75430;DHT22;64127;51.488;5.462;2022-12-08T00:08:27;6.50;99.90
75430;DHT22;64127;51.488;5.462;2022-12-08T00:11:18;6.40;99.90
75430;DHT22;64127;51.488;5.462;2022-12-08T00:13:51;6.40;99.90
75430;DHT22;64127;51.488;5.462;2022-12-08T00:16:23;6.40;99.90
75430;DHT22;64127;51.488;5.462;2022-12-08T00:18:55;6.40;99.90
75430;DHT22;64127;51.488;5.462;2022-12-08T00:21:29;6.30;99.90
75430;DHT22;64127;51.488;5.462;2022-12-08T00:24:01;6.30;99.90
75430;DHT22;64127;51.488;5.462;2022-12-08T00:26:36;6.30;99.90
75430;DHT22;64127;51.488;5.462;2022-12-08T00:29:09;6.30;99.90
75430;DHT22;64127;51.488;5.462;2022-12-08T00:31:51;6.30;99.90
75430;DHT22;64127;51.488;5.462;2022-12-08T00:34:23;6.30;99.90
75430;DHT22;64127;51.488;5.462;2022-12-08T00:36:55;6.40;99.90
75430;DHT22;64127;51.488;5.462;2022-12-08T00:39:27;6.30;99.90
75430;DHT22;64127;51.488;5.462;2022-12-08T00:42:02;6.30;99.90
75430;DHT22;64127;51.488;5.462;2022-12-08T00:44:44;6.30;99.90
75430;DHT22;64127;51.488;5.462;2022-12-08T00:47:17;6.30;99.90
75430;DHT22;64127;51.488;5.462;2022-12-08T00:49:55;6.30;99.90
75430;DHT22;64127;51.488;5.462;2022-12-08T00:52:27;6.30;99.90
75430;DHT22;64127;51.488;5.462;2022-12-08T00:55:00;6.30;99.90
75430;DHT22;64127;51.488;5.462;2022-12-08T00:57:49;6.30;99.90
75430;DHT22;64127;51.488;5.462;2022-12-08T01:00:40;6.30;99.90
75430;DHT22;64127;51.488;5.462;2022-12-08T01:03:13;6.30;99.90
75430;DHT22;64127;51.488;5.462;2022-12-08T01:05:50;6.30;99.90
75430;DHT22;64127;51.488;5.462;2022-12-08T01:08:26;6.30;99.90
75430;DHT22;64127;51.488;5.462;2022-12-08T01:11:03;6.30;99.90
75430;DHT22;64127;51.488;5.462;2022-12-08T01:13:41;6.30;99.90
75430;DHT22;64127;51.488;5.462;2022-12-08T01:16:25;6.40;99.90
75430;DHT22;64127;51.488;5.462;2022-12-08T01:19:00;6.40;99.90
75430;DHT22;64127;51.488;5.462;2022-12-08T01:21:33;6.40;99.90
75430;DHT22;64127;51.488;5.462;2022-12-08T01:24:05;6.40;99.90
75430;DHT22;64127;51.488;5.462;2022-12-08T01:26:38;6.40;99.90
75430;DHT22;64127;51.488;5.462;2022-12-08T01:29:10;6.40;99.90
75430;DHT22;64127;51.488;5.462;2022-12-08T01:31:45;6.40;99.90
75430;DHT22;64127;51.488;5.462;2022-12-08T01:34:18;6.40;99.90
75430;DHT22;64127;51.488;5.462;2022-12-08T01:36:50;6.40;99.90
75430;DHT22;64127;51.488;5.462;2022-12-08T01:39:22;6.40;99.90
75430;DHT22;64127;51.488;5.462;2022-12-08T01:41:54;6.40;99.90
75430;DHT22;64127;51.488;5.462;2022-12-08T01:46:58;6.40;99.90
75430;DHT22;64127;51.488;5.462;2022-12-08T01:49:34;6.50;99.90
75430;DHT22;64127;51.488;5.462;2022-12-08T01:55:00;6.40;99.90
75430;DHT22;64127;51.488;5.462;2022-12-08T01:57:42;6.40;99.90
75430;DHT22;64127;51.488;5.462;2022-12-08T02:00:21;6.50;99.90
75430;DHT22;64127;51.488;5.462;2022-12-08T02:03:05;6.40;99.90
75430;DHT22;64127;51.488;5.462;2022-12-08T02:05:43;6.50;99.90
75430;DHT22;64127;51.488;5.462;2022-12-08T02:08:17;6.50;99.90
75430;DHT22;64127;51.488;5.462;2022-12-08T02:10:50;6.50;99.90
75430;DHT22;64127;51.488;5.462;2022-12-08T02:13:23;6.40;99.90
75430;DHT22;64127;51.488;5.462;2022-12-08T02:25:59;6.40;99.90
75430;DHT22;64127;51.488;5.462;2022-12-08T02:32:08;6.40;99.90
75430;DHT22;64127;51.488;5.462;2022-12-08T02:35:05;6.40;99.90
75430;DHT22;64127;51.488;5.462;2022-12-08T02:38:02;6.40;99.90
75430;DHT22;64127;51.488;5.462;2022-12-08T02:44:04;6.40;99.90
75430;DHT22;64127;51.488;5.462;2022-12-08T02:46:53;6.40;99.90
75430;DHT22;64127;51.488;5.462;2022-12-08T02:49:31;6.30;99.90
75430;DHT22;64127;51.488;5.462;2022-12-08T02:55:02;6.30;99.90
75430;DHT22;64127;51.488;5.462;2022-12-08T03:13:02;6.20;99.90
75430;DHT22;64127;51.488;5.462;2022-12-08T03:15:49;6.20;99.90
75430;DHT22;64127;51.488;5.462;2022-12-08T03:18:25;6.20;99.90
75430;DHT22;64127;51.488;5.462;2022-12-08T03:21:02;6.20;99.90
75430;DHT22;64127;51.488;5.462;2022-12-08T03:23:37;6.20;99.90
75430;DHT22;64127;51.488;5.462;2022-12-08T03:26:18;6.20;99.90
75430;DHT22;64127;51.488;5.462;2022-12-08T03:28:58;6.20;99.90
75430;DHT22;64127;51.488;5.462;2022-12-08T03:31:32;6.20;99.90
75430;DHT22;64127;51.488;5.462;2022-12-08T03:34:12;6.20;99.90
75430;DHT22;64127;51.488;5.462;2022-12-08T03:36:45;6.20;99.90
75430;DHT22;64127;51.488;5.462;2022-12-08T03:39:18;6.20;99.90
75430;DHT22;64127;51.488;5.462;2022-12-08T03:41:50;6.20;99.90
75430;DHT22;64127;51.488;5.462;2022-12-08T03:44:24;6.20;99.90
75430;DHT22;64127;51.488;5.462;2022-12-08T03:46:56;6.30;99.90
75430;DHT22;64127;51.488;5.462;2022-12-08T03:49:28;6.20;99.90
75430;DHT22;64127;51.488;5.462;2022-12-08T03:52:00;6.20;99.90
75430;DHT22;64127;51.488;5.462;2022-12-08T03:54:38;6.20;99.90
75430;DHT22;64127;51.488;5.462;2022-12-08T03:57:11;6.20;99.90
75430;DHT22;64127;51.488;5.462;2022-12-08T03:59:46;6.20;99.90
75430;DHT22;64127;51.488;5.462;2022-12-08T04:02:18;6.20;99.90
75430;DHT22;64127;51.488;5.462;2022-12-08T04:04:50;6.30;99.90
75430;DHT22;64127;51.488;5.462;2022-12-08T04:07:22;6.30;99.90
75430;DHT22;64127;51.488;5.462;2022-12-08T04:09:56;6.30;99.90
75430;DHT22;64127;51.488;5.462;2022-12-08T04:12:31;6.30;99.90
75430;DHT22;64127;51.488;5.462;2022-12-08T04:15:06;6.30;99.90
75430;DHT22;64127;51.488;5.462;2022-12-08T04:17:38;6.30;99.90
75430;DHT22;64127;51.488;5.462;2022-12-08T04:20:11;6.30;99.90
75430;DHT22;64127;51.488;5.462;2022-12-08T04:22:45;6.30;99.90
75430;DHT22;64127;51.488;5.462;2022-12-08T04:25:18;6.30;99.90
75430;DHT22;64127;51.488;5.462;2022-12-08T04:27:50;6.30;99.90
75430;DHT22;64127;51.488;5.462;2022-12-08T04:30:22;6.30;99.90
75430;DHT22;64127;51.488;5.462;2022-12-08T04:32:54;6.30;99.90
75430;DHT22;64127;51.488;5.462;2022-12-08T04:35:27;6.30;99.90
75430;DHT22;64127;51.488;5.462;2022-12-08T04:38:00;6.20;99.90
75430;DHT22;64127;51.488;5.462;2022-12-08T04:40:32;6.30;99.90
75430;DHT22;64127;51.488;5.462;2022-12-08T04:43:04;6.30;99.90
75430;DHT22;64127;51.488;5.462;2022-12-08T04:45:40;6.30;99.90
75430;DHT22;64127;51.488;5.462;2022-12-08T04:48:13;6.30;99.90
75430;DHT22;64127;51.488;5.462;2022-12-08T04:50:49;6.40;99.90
75430;DHT22;64127;51.488;5.462;2022-12-08T04:53:24;6.40;99.90
75430;DHT22;64127;51.488;5.462;2022-12-08T04:56:00;6.40;99.90
75430;DHT22;64127;51.488;5.462;2022-12-08T04:58:38;6.40;99.90
75430;DHT22;64127;51.488;5.462;2022-12-08T05:01:11;6.40;99.90
75430;DHT22;64127;51.488;5.462;2022-12-08T05:03:44;6.30;99.90
75430;DHT22;64127;51.488;5.462;2022-12-08T05:06:19;6.30;99.90
75430;DHT22;64127;51.488;5.462;2022-12-08T05:08:54;6.30;99.90
75430;DHT22;64127;51.488;5.462;2022-12-08T05:11:32;6.30;99.90
75430;DHT22;64127;51.488;5.462;2022-12-08T05:14:04;6.30;99.90
75430;DHT22;64127;51.488;5.462;2022-12-08T05:16:37;6.30;99.90
75430;DHT22;64127;51.488;5.462;2022-12-08T05:19:10;6.20;99.90
75430;DHT22;64127;51.488;5.462;2022-12-08T05:21:46;6.20;99.90
75430;DHT22;64127;51.488;5.462;2022-12-08T05:24:21;6.20;99.90
75430;DHT22;64127;51.488;5.462;2022-12-08T05:26:56;6.20;99.90
75430;DHT22;64127;51.488;5.462;2022-12-08T05:29:28;6.20;99.90
75430;DHT22;64127;51.488;5.462;2022-12-08T05:32:01;6.20;99.90
75430;DHT22;64127;51.488;5.462;2022-12-08T05:34:33;6.20;99.90
75430;DHT22;64127;51.488;5.462;2022-12-08T05:37:05;6.20;99.90
75430;DHT22;64127;51.488;5.462;2022-12-08T05:39:37;6.30;99.90
75430;DHT22;64127;51.488;5.462;2022-12-08T05:42:09;6.30;99.90
75430;DHT22;64127;51.488;5.462;2022-12-08T05:44:41;6.30;99.90
75430;DHT22;64127;51.488;5.462;2022-12-08T05:47:16;6.30;99.90
75430;DHT22;64127;51.488;5.462;2022-12-08T05:49:48;6.30;99.90
75430;DHT22;64127;51.488;5.462;2022-12-08T05:52:20;6.30;99.90
75430;DHT22;64127;51.488;5.462;2022-12-08T05:54:52;6.30;99.90
75430;DHT22;64127;51.488;5.462;2022-12-08T05:57:25;6.20;99.90
75430;DHT22;64127;51.488;5.462;2022-12-08T06:00:04;6.20;99.90
75430;DHT22;64127;51.488;5.462;2022-12-08T06:02:38;6.20;99.90
75430;DHT22;64127;51.488;5.462;2022-12-08T06:05:10;6.20;99.90
75430;DHT22;64127;51.488;5.462;2022-12-08T06:07:42;6.20;99.90
75430;DHT22;64127;51.488;5.462;2022-12-08T06:10:15;6.20;99.90
75430;DHT22;64127;51.488;5.462;2022-12-08T06:12:47;6.20;99.90
75430;DHT22;64127;51.488;5.462;2022-12-08T06:15:19;6.20;99.90
75430;DHT22;64127;51.488;5.462;2022-12-08T06:17:51;6.20;99.90
75430;DHT22;64127;51.488;5.462;2022-12-08T06:20:23;6.20;99.90
75430;DHT22;64127;51.488;5.462;2022-12-08T06:22:55;6.20;99.90
75430;DHT22;64127;51.488;5.462;2022-12-08T06:25:28;6.20;99.90
75430;DHT22;64127;51.488;5.462;2022-12-08T06:28:00;6.20;99.90
75430;DHT22;64127;51.488;5.462;2022-12-08T06:30:32;6.30;99.90
75430;DHT22;64127;51.488;5.462;2022-12-08T06:33:05;6.30;99.90
75430;DHT22;64127;51.488;5.462;2022-12-08T06:35:37;6.30;99.90
75430;DHT22;64127;51.488;5.462;2022-12-08T06:38:09;6.30;99.90
75430;DHT22;64127;51.488;5.462;2022-12-08T06:40:41;6.40;99.90
75430;DHT22;64127;51.488;5.462;2022-12-08T06:43:17;6.40;99.90
75430;DHT22;64127;51.488;5.462;2022-12-08T06:45:50;6.40;99.90
75430;DHT22;64127;51.488;5.462;2022-12-08T06:48:22;6.50;99.90
75430;DHT22;64127;51.488;5.462;2022-12-08T06:50:55;6.50;99.90
75430;DHT22;64127;51.488;5.462;2022-12-08T06:53:27;6.60;99.90
75430;DHT22;64127;51.488;5.462;2022-12-08T06:56:00;6.60;99.90
75430;DHT22;64127;51.488;5.462;2022-12-08T06:58:34;6.60;99.90
75430;DHT22;64127;51.488;5.462;2022-12-08T07:01:08;6.60;99.90
75430;DHT22;64127;51.488;5.462;2022-12-08T07:03:50;6.70;99.90
75430;DHT22;64127;51.488;5.462;2022-12-08T07:06:24;6.70;99.90
75430;DHT22;64127;51.488;5.462;2022-12-08T07:08:56;6.70;99.90
75430;DHT22;64127;51.488;5.462;2022-12-08T07:11:28;6.70;99.90
75430;DHT22;64127;51.488;5.462;2022-12-08T07:14:01;6.70;99.90
75430;DHT22;64127;51.488;5.462;2022-12-08T07:16:33;6.70;99.90
75430;DHT22;64127;51.488;5.462;2022-12-08T07:19:06;6.70;99.90
75430;DHT22;64127;51.488;5.462;2022-12-08T07:21:38;6.70;99.90
75430;DHT22;64127;51.488;5.462;2022-12-08T07:24:11;6.70;99.90
75430;DHT22;64127;51.488;5.462;2022-12-08T07:26:46;6.60;99.90
75430;DHT22;64127;51.488;5.462;2022-12-08T07:29:18;6.60;99.90
75430;DHT22;64127;51.488;5.462;2022-12-08T07:31:56;6.50;99.90
75430;DHT22;64127;51.488;5.462;2022-12-08T07:34:29;6.50;99.90
75430;DHT22;64127;51.488;5.462;2022-12-08T07:37:01;6.50;99.90
75430;DHT22;64127;51.488;5.462;2022-12-08T07:39:36;6.40;99.90
75430;DHT22;64127;51.488;5.462;2022-12-08T07:42:08;6.40;99.90
75430;DHT22;64127;51.488;5.462;2022-12-08T07:44:40;6.40;99.90
75430;DHT22;64127;51.488;5.462;2022-12-08T07:47:12;6.30;99.90
75430;DHT22;64127;51.488;5.462;2022-12-08T07:49:44;6.30;99.90
75430;DHT22;64127;51.488;5.462;2022-12-08T07:52:17;6.30;99.90
75430;DHT22;64127;51.488;5.462;2022-12-08T07:54:52;6.30;99.90
75430;DHT22;64127;51.488;5.462;2022-12-08T07:57:31;6.30;99.90
75430;DHT22;64127;51.488;5.462;2022-12-08T08:00:07;6.30;99.90
75430;DHT22;64127;51.488;5.462;2022-12-08T08:02:41;6.20;99.90
75430;DHT22;64127;51.488;5.462;2022-12-08T08:05:14;6.20;99.90
75430;DHT22;64127;51.488;5.462;2022-12-08T08:07:46;6.30;99.90
75430;DHT22;64127;51.488;5.462;2022-12-08T08:10:19;6.30;99.90
75430;DHT22;64127;51.488;5.462;2022-12-08T08:12:57;6.20;99.90
75430;DHT22;64127;51.488;5.462;2022-12-08T08:15:30;6.20;99.90
75430;DHT22;64127;51.488;5.462;2022-12-08T08:18:02;6.20;99.90
75430;DHT22;64127;51.488;5.462;2022-12-08T08:20:35;6.20;99.90
75430;DHT22;64127;51.488;5.462;2022-12-08T08:23:07;6.20;99.90
75430;DHT22;64127;51.488;5.462;2022-12-08T08:25:42;6.20;99.90
75430;DHT22;64127;51.488;5.462;2022-12-08T08:28:15;6.20;99.90
75430;DHT22;64127;51.488;5.462;2022-12-08T08:30:47;6.20;99.90
75430;DHT22;64127;51.488;5.462;2022-12-08T08:33:20;6.20;99.90
75430;DHT22;64127;51.488;5.462;2022-12-08T08:35:53;6.20;99.90
75430;DHT22;64127;51.488;5.462;2022-12-08T08:38:26;6.20;99.90
75430;DHT22;64127;51.488;5.462;2022-12-08T08:40:58;6.20;99.90
75430;DHT22;64127;51.488;5.462;2022-12-08T08:43:33;6.20;99.90
75430;DHT22;64127;51.488;5.462;2022-12-08T08:46:09;6.30;99.90
75430;DHT22;64127;51.488;5.462;2022-12-08T08:49:01;6.30;99.90
75430;DHT22;64127;51.488;5.462;2022-12-08T08:52:44;6.30;99.90
75430;DHT22;64127;51.488;5.462;2022-12-08T08:55:17;6.30;99.90
75430;DHT22;64127;51.488;5.462;2022-12-08T08:57:50;6.30;99.90
75430;DHT22;64127;51.488;5.462;2022-12-08T09:00:25;6.30;99.90
75430;DHT22;64127;51.488;5.462;2022-12-08T09:02:57;6.30;99.90
75430;DHT22;64127;51.488;5.462;2022-12-08T09:05:33;6.30;99.90
75430;DHT22;64127;51.488;5.462;2022-12-08T09:08:06;6.30;99.90
75430;DHT22;64127;51.488;5.462;2022-12-08T09:10:47;6.30;99.90
75430;DHT22;64127;51.488;5.462;2022-12-08T09:13:19;6.30;99.90
75430;DHT22;64127;51.488;5.462;2022-12-08T09:15:52;6.30;99.90
75430;DHT22;64127;51.488;5.462;2022-12-08T09:18:30;6.30;99.90
75430;DHT22;64127;51.488;5.462;2022-12-08T09:21:05;6.20;99.90
75430;DHT22;64127;51.488;5.462;2022-12-08T09:23:40;6.20;99.90
75430;DHT22;64127;51.488;5.462;2022-12-08T09:26:13;6.20;99.90
75430;DHT22;64127;51.488;5.462;2022-12-08T09:28:45;6.20;99.90
75430;DHT22;64127;51.488;5.462;2022-12-08T09:31:20;6.20;99.90
75430;DHT22;64127;51.488;5.462;2022-12-08T09:33:52;6.20;99.90
75430;DHT22;64127;51.488;5.462;2022-12-08T09:36:30;6.30;99.90
75430;DHT22;64127;51.488;5.462;2022-12-08T09:39:03;6.30;99.90
75430;DHT22;64127;51.488;5.462;2022-12-08T09:41:58;6.30;99.90
75430;DHT22;64127;51.488;5.462;2022-12-08T09:44:46;6.20;99.90
75430;DHT22;64127;51.488;5.462;2022-12-08T09:47:32;6.30;99.90
75430;DHT22;64127;51.488;5.462;2022-12-08T09:53:14;6.30;99.90
75430;DHT22;64127;51.488;5.462;2022-12-08T09:59:01;6.40;99.90
75430;DHT22;64127;51.488;5.462;2022-12-08T10:01:46;6.40;99.90
75430;DHT22;64127;51.488;5.462;2022-12-08T10:07:20;6.40;99.90
75430;DHT22;64127;51.488;5.462;2022-12-08T10:19:19;6.40;99.90
75430;DHT22;64127;51.488;5.462;2022-12-08T10:22:14;6.40;99.90
75430;DHT22;64127;51.488;5.462;2022-12-08T10:25:12;6.40;99.90
75430;DHT22;64127;51.488;5.462;2022-12-08T10:27:53;6.30;99.90
75430;DHT22;64127;51.488;5.462;2022-12-08T10:30:26;6.20;99.90
75430;DHT22;64127;51.488;5.462;2022-12-08T10:32:58;6.20;99.90
75430;DHT22;64127;51.488;5.462;2022-12-08T10:35:46;6.20;99.90
75430;DHT22;64127;51.488;5.462;2022-12-08T10:38:30;6.20;99.90
75430;DHT22;64127;51.488;5.462;2022-12-08T10:41:18;6.20;99.90
75430;DHT22;64127;51.488;5.462;2022-12-08T10:44:02;6.20;99.90
75430;DHT22;64127;51.488;5.462;2022-12-08T10:46:39;6.30;99.90
75430;DHT22;64127;51.488;5.462;2022-12-08T10:49:11;6.30;99.90
75430;DHT22;64127;51.488;5.462;2022-12-08T10:51:44;6.30;99.90
75430;DHT22;64127;51.488;5.462;2022-12-08T10:54:31;6.40;99.90
75430;DHT22;64127;51.488;5.462;2022-12-08T10:57:05;6.30;99.90
75430;DHT22;64127;51.488;5.462;2022-12-08T10:59:43;6.30;99.90
75430;DHT22;64127;51.488;5.462;2022-12-08T11:02:19;6.30;99.90
75430;DHT22;64127;51.488;5.462;2022-12-08T11:04:58;6.30;99.90
75430;DHT22;64127;51.488;5.462;2022-12-08T11:07:31;6.20;99.90
75430;DHT22;64127;51.488;5.462;2022-12-08T11:10:03;6.20;99.90
75430;DHT22;64127;51.488;5.462;2022-12-08T11:12:36;6.20;99.90
75430;DHT22;64127;51.488;5.462;2022-12-08T11:15:15;6.10;99.90
75430;DHT22;64127;51.488;5.462;2022-12-08T11:17:59;6.10;99.90
75430;DHT22;64127;51.488;5.462;2022-12-08T11:20:39;6.10;99.90
75430;DHT22;64127;51.488;5.462;2022-12-08T11:23:24;6.10;99.90
75430;DHT22;64127;51.488;5.462;2022-12-08T11:26:02;6.20;99.90
75430;DHT22;64127;51.488;5.462;2022-12-08T11:28:49;6.20;99.90
75430;DHT22;64127;51.488;5.462;2022-12-08T11:31:37;6.20;99.90
75430;DHT22;64127;51.488;5.462;2022-12-08T11:37:39;6.20;99.90
75430;DHT22;64127;51.488;5.462;2022-12-08T11:40:20;6.20;99.90
75430;DHT22;64127;51.488;5.462;2022-12-08T11:45:59;6.30;99.90
75430;DHT22;64127;51.488;5.462;2022-12-08T11:48:49;6.30;99.90
75430;DHT22;64127;51.488;5.462;2022-12-08T11:51:31;6.30;99.90
75430;DHT22;64127;51.488;5.462;2022-12-08T11:54:24;6.30;99.90
75430;DHT22;64127;51.488;5.462;2022-12-08T11:56:59;6.30;99.90
75430;DHT22;64127;51.488;5.462;2022-12-08T11:59:47;6.30;99.90
75430;DHT22;64127;51.488;5.462;2022-12-08T12:02:27;6.30;99.90
75430;DHT22;64127;51.488;5.462;2022-12-08T12:05:08;6.30;99.90
75430;DHT22;64127;51.488;5.462;2022-12-08T12:08:26;6.20;99.90
75430;DHT22;64127;51.488;5.462;2022-12-08T12:11:44;6.20;99.90
75430;DHT22;64127;51.488;5.462;2022-12-08T12:21:05;6.00;99.90
75430;DHT22;64127;51.488;5.462;2022-12-08T12:26:38;6.00;99.90
75430;DHT22;64127;51.488;5.462;2022-12-08T12:29:31;6.00;99.90
75430;DHT22;64127;51.488;5.462;2022-12-08T12:32:08;6.00;99.90
75430;DHT22;64127;51.488;5.462;2022-12-08T12:34:50;6.00;99.90
75430;DHT22;64127;51.488;5.462;2022-12-08T12:37:40;6.10;99.90
75430;DHT22;64127;51.488;5.462;2022-12-08T12:40:20;6.10;99.90
75430;DHT22;64127;51.488;5.462;2022-12-08T12:45:30;6.20;99.90
75430;DHT22;64127;51.488;5.462;2022-12-08T12:50:42;6.30;99.90
75430;DHT22;64127;51.488;5.462;2022-12-08T12:55:59;6.30;99.90
75430;DHT22;64127;51.488;5.462;2022-12-08T12:58:37;6.40;99.90
75430;DHT22;64127;51.488;5.462;2022-12-08T13:03:46;6.40;99.90
75430;DHT22;64127;51.488;5.462;2022-12-08T13:06:31;6.40;99.90
75430;DHT22;64127;51.488;5.462;2022-12-08T13:09:36;6.40;99.90
75430;DHT22;64127;51.488;5.462;2022-12-08T13:12:17;6.40;99.90
75430;DHT22;64127;51.488;5.462;2022-12-08T13:14:59;6.40;99.90
75430;DHT22;64127;51.488;5.462;2022-12-08T13:17:36;6.50;99.90
75430;DHT22;64127;51.488;5.462;2022-12-08T13:20:18;6.50;99.90
75430;DHT22;64127;51.488;5.462;2022-12-08T13:25:48;6.50;99.90
75430;DHT22;64127;51.488;5.462;2022-12-08T13:28:27;6.60;99.90
75430;DHT22;64127;51.488;5.462;2022-12-08T13:31:02;6.60;99.90
75430;DHT22;64127;51.488;5.462;2022-12-08T13:33:40;6.60;99.90
75430;DHT22;64127;51.488;5.462;2022-12-08T13:36:24;6.60;99.90
75430;DHT22;64127;51.488;5.462;2022-12-08T13:39:00;6.60;99.90
75430;DHT22;64127;51.488;5.462;2022-12-08T13:41:42;6.60;99.90
75430;DHT22;64127;51.488;5.462;2022-12-08T13:44:34;6.60;99.90
75430;DHT22;64127;51.488;5.462;2022-12-08T13:47:35;6.60;99.90
75430;DHT22;64127;51.488;5.462;2022-12-08T13:50:46;6.60;99.90
75430;DHT22;64127;51.488;5.462;2022-12-08T13:54:03;6.60;99.90
75430;DHT22;64127;51.488;5.462;2022-12-08T13:56:58;6.60;99.90
75430;DHT22;64127;51.488;5.462;2022-12-08T13:59:52;6.60;99.90
75430;DHT22;64127;51.488;5.462;2022-12-08T14:02:34;6.60;99.90
75430;DHT22;64127;51.488;5.462;2022-12-08T14:05:15;6.60;99.90
75430;DHT22;64127;51.488;5.462;2022-12-08T14:08:19;6.70;99.90
75430;DHT22;64127;51.488;5.462;2022-12-08T14:11:38;6.70;99.90
75430;DHT22;64127;51.488;5.462;2022-12-08T14:14:15;6.70;99.90
75430;DHT22;64127;51.488;5.462;2022-12-08T14:17:16;6.60;99.90
75430;DHT22;64127;51.488;5.462;2022-12-08T14:22:51;6.60;99.90
75430;DHT22;64127;51.488;5.462;2022-12-08T14:25:26;6.60;99.90
75430;DHT22;64127;51.488;5.462;2022-12-08T14:28:02;6.60;99.90
75430;DHT22;64127;51.488;5.462;2022-12-08T14:30:37;6.60;99.90
75430;DHT22;64127;51.488;5.462;2022-12-08T14:33:15;6.50;99.90
75430;DHT22;64127;51.488;5.462;2022-12-08T14:35:50;6.60;99.90
75430;DHT22;64127;51.488;5.462;2022-12-08T14:38:26;6.60;99.90
75430;DHT22;64127;51.488;5.462;2022-12-08T14:41:00;6.60;99.90
75430;DHT22;64127;51.488;5.462;2022-12-08T14:43:39;6.50;99.90
75430;DHT22;64127;51.488;5.462;2022-12-08T14:46:21;6.50;99.90
75430;DHT22;64127;51.488;5.462;2022-12-08T14:48:54;6.50;99.90
75430;DHT22;64127;51.488;5.462;2022-12-08T14:51:31;6.40;99.90
75430;DHT22;64127;51.488;5.462;2022-12-08T14:54:09;6.40;99.90
75430;DHT22;64127;51.488;5.462;2022-12-08T14:56:53;6.40;99.90
75430;DHT22;64127;51.488;5.462;2022-12-08T14:59:36;6.40;99.90
75430;DHT22;64127;51.488;5.462;2022-12-08T15:04:56;6.30;99.90
75430;DHT22;64127;51.488;5.462;2022-12-08T15:07:52;6.30;99.90
75430;DHT22;64127;51.488;5.462;2022-12-08T15:10:34;6.30;99.90
75430;DHT22;64127;51.488;5.462;2022-12-08T15:15:52;6.30;99.90
75430;DHT22;64127;51.488;5.462;2022-12-08T15:18:36;6.20;99.90
75430;DHT22;64127;51.488;5.462;2022-12-08T15:21:10;6.20;99.90
75430;DHT22;64127;51.488;5.462;2022-12-08T15:23:48;6.10;99.90
75430;DHT22;64127;51.488;5.462;2022-12-08T15:26:23;6.10;99.90
75430;DHT22;64127;51.488;5.462;2022-12-08T15:29:09;6.00;99.90
75430;DHT22;64127;51.488;5.462;2022-12-08T15:31:44;6.00;99.90
75430;DHT22;64127;51.488;5.462;2022-12-08T15:34:16;6.00;99.90
75430;DHT22;64127;51.488;5.462;2022-12-08T15:36:51;6.00;99.90
75430;DHT22;64127;51.488;5.462;2022-12-08T15:39:35;6.00;99.90
75430;DHT22;64127;51.488;5.462;2022-12-08T15:42:10;5.90;99.90
75430;DHT22;64127;51.488;5.462;2022-12-08T15:44:44;5.90;99.90
75430;DHT22;64127;51.488;5.462;2022-12-08T15:47:21;5.90;99.90
75430;DHT22;64127;51.488;5.462;2022-12-08T15:49:58;5.90;99.90
75430;DHT22;64127;51.488;5.462;2022-12-08T15:52:30;6.00;99.90
75430;DHT22;64127;51.488;5.462;2022-12-08T15:55:02;6.00;99.90
75430;DHT22;64127;51.488;5.462;2022-12-08T15:57:35;6.00;99.90
75430;DHT22;64127;51.488;5.462;2022-12-08T16:00:32;6.00;99.90
75430;DHT22;64127;51.488;5.462;2022-12-08T16:03:26;6.10;99.90
75430;DHT22;64127;51.488;5.462;2022-12-08T16:06:20;6.10;99.90
75430;DHT22;64127;51.488;5.462;2022-12-08T16:09:32;6.10;99.90
75430;DHT22;64127;51.488;5.462;2022-12-08T16:12:21;6.00;99.90
75430;DHT22;64127;51.488;5.462;2022-12-08T16:15:35;5.90;99.90
75430;DHT22;64127;51.488;5.462;2022-12-08T16:18:26;5.90;99.90
75430;DHT22;64127;51.488;5.462;2022-12-08T16:21:01;5.80;99.90
75430;DHT22;64127;51.488;5.462;2022-12-08T16:23:54;5.80;99.90
75430;DHT22;64127;51.488;5.462;2022-12-08T16:26:26;5.80;99.90
75430;DHT22;64127;51.488;5.462;2022-12-08T16:29:20;5.80;99.90
75430;DHT22;64127;51.488;5.462;2022-12-08T16:31:53;5.80;99.90
75430;DHT22;64127;51.488;5.462;2022-12-08T16:34:26;5.80;99.90
75430;DHT22;64127;51.488;5.462;2022-12-08T16:36:58;5.80;99.90
75430;DHT22;64127;51.488;5.462;2022-12-08T16:39:30;5.80;99.90
75430;DHT22;64127;51.488;5.462;2022-12-08T16:42:02;5.80;99.90
75430;DHT22;64127;51.488;5.462;2022-12-08T16:44:54;5.80;99.90
75430;DHT22;64127;51.488;5.462;2022-12-08T16:47:26;5.80;99.90
75430;DHT22;64127;51.488;5.462;2022-12-08T16:49:58;5.80;99.90
75430;DHT22;64127;51.488;5.462;2022-12-08T16:52:31;5.70;99.90
75430;DHT22;64127;51.488;5.462;2022-12-08T16:55:15;5.70;99.90
75430;DHT22;64127;51.488;5.462;2022-12-08T16:57:49;5.70;99.90
75430;DHT22;64127;51.488;5.462;2022-12-08T17:00:23;5.70;99.90
75430;DHT22;64127;51.488;5.462;2022-12-08T17:02:57;5.70;99.90
75430;DHT22;64127;51.488;5.462;2022-12-08T17:05:33;5.70;99.90
75430;DHT22;64127;51.488;5.462;2022-12-08T17:08:08;5.70;99.90
75430;DHT22;64127;51.488;5.462;2022-12-08T17:10:41;5.80;99.90
75430;DHT22;64127;51.488;5.462;2022-12-08T17:13:16;5.80;99.90
75430;DHT22;64127;51.488;5.462;2022-12-08T17:15:48;5.80;99.90
75430;DHT22;64127;51.488;5.462;2022-12-08T17:18:21;5.70;99.90
75430;DHT22;64127;51.488;5.462;2022-12-08T17:21:01;5.70;99.90
75430;DHT22;64127;51.488;5.462;2022-12-08T17:23:33;5.70;99.90
75430;DHT22;64127;51.488;5.462;2022-12-08T17:26:06;5.70;99.90
75430;DHT22;64127;51.488;5.462;2022-12-08T17:28:40;5.70;99.90
75430;DHT22;64127;51.488;5.462;2022-12-08T17:31:32;5.70;99.90
75430;DHT22;64127;51.488;5.462;2022-12-08T17:34:05;5.70;99.90
75430;DHT22;64127;51.488;5.462;2022-12-08T17:36:41;5.70;99.90
75430;DHT22;64127;51.488;5.462;2022-12-08T17:39:16;5.80;99.90
75430;DHT22;64127;51.488;5.462;2022-12-08T17:41:49;5.80;99.90
75430;DHT22;64127;51.488;5.462;2022-12-08T17:44:27;5.80;99.90
75430;DHT22;64127;51.488;5.462;2022-12-08T17:47:00;5.80;99.90
75430;DHT22;64127;51.488;5.462;2022-12-08T17:49:33;5.80;99.90
75430;DHT22;64127;51.488;5.462;2022-12-08T17:52:08;5.80;99.90
75430;DHT22;64127;51.488;5.462;2022-12-08T17:54:41;5.80;99.90
75430;DHT22;64127;51.488;5.462;2022-12-08T17:57:14;5.80;99.90
75430;DHT22;64127;51.488;5.462;2022-12-08T17:59:46;5.80;99.90
75430;DHT22;64127;51.488;5.462;2022-12-08T18:02:18;5.70;99.90
75430;DHT22;64127;51.488;5.462;2022-12-08T18:04:50;5.80;99.90
75430;DHT22;64127;51.488;5.462;2022-12-08T18:07:24;5.70;99.90
75430;DHT22;64127;51.488;5.462;2022-12-08T18:09:59;5.70;99.90
75430;DHT22;64127;51.488;5.462;2022-12-08T18:12:31;5.70;99.90
75430;DHT22;64127;51.488;5.462;2022-12-08T18:15:08;5.70;99.90
75430;DHT22;64127;51.488;5.462;2022-12-08T18:17:42;5.60;99.90
75430;DHT22;64127;51.488;5.462;2022-12-08T18:20:16;5.60;99.90
75430;DHT22;64127;51.488;5.462;2022-12-08T18:22:48;5.60;99.90
75430;DHT22;64127;51.488;5.462;2022-12-08T18:25:21;5.60;99.90
75430;DHT22;64127;51.488;5.462;2022-12-08T18:27:54;5.60;99.90